Time;durP1;ratioP1;P1;durP2;ratioP2;P2;SDS_P1;SDS_P2;PMS_P1;PMS_P2;Temp;Humidity;BMP_temperature;BMP_pressure;BME280_temperature;BME280_humidity;BME280_pressure;Samples;Min_cycle;Max_cycle;Signal;HPM_P1;HPM_P2
2022/01/10 00:02:08;;;;;;;;;54.50;43.25;;;;;7.96;78.28;100772.97;5077980;28;45404;-74
2022/01/10 00:04:33;;;;;;;;;54.00;44.50;;;;;7.95;78.32;100778.22;5077249;28;58128;-73
2022/01/10 00:06:59;;;;;;;;;61.00;44.75;;;;;7.93;78.24;100785.16;5078299;28;45505;-74
2022/01/10 00:09:24;;;;;;;;;55.25;43.25;;;;;7.88;78.11;100782.44;5076865;28;61405;-74
2022/01/10 00:11:49;;;;;;;;;55.25;42.75;;;;;7.92;78.56;100783.38;5077463;28;59253;-74
2022/01/10 00:14:15;;;;;;;;;57.50;42.00;;;;;7.93;78.23;100796.56;5077135;28;57479;-74
2022/01/10 00:16:40;;;;;;;;;53.75;43.75;;;;;7.92;78.29;100801.78;5077889;28;47338;-74
2022/01/10 00:19:06;;;;;;;;;57.25;44.75;;;;;7.95;78.49;100815.91;5076994;28;46754;-74
2022/01/10 00:21:32;;;;;;;;;58.75;43.50;;;;;7.99;78.52;100824.72;5077163;28;45183;-74
2022/01/10 00:23:57;;;;;;;;;59.00;44.25;;;;;8.01;78.33;100823.03;5077598;28;45408;-75
2022/01/10 00:26:23;;;;;;;;;61.50;44.00;;;;;8.03;78.75;100824.81;5077675;28;50639;-74
2022/01/10 00:28:48;;;;;;;;;58.00;43.25;;;;;8.05;78.64;100819.63;5070988;28;55491;-74
2022/01/10 00:31:13;;;;;;;;;41.25;36.00;;;;;8.08;78.67;100817.91;5077762;28;45205;-74
2022/01/10 00:33:39;;;;;;;;;45.25;40.50;;;;;8.12;78.88;100816.25;5076833;28;57661;-74
2022/01/10 00:36:04;;;;;;;;;50.25;39.75;;;;;8.16;78.84;100833.88;5075342;28;58645;-74
2022/01/10 00:38:41;;;;;;;;;49.25;39.25;;;;;8.17;78.55;100818.97;5076538;28;60857;-74
2022/01/10 00:41:15;;;;;;;;;42.75;40.25;;;;;8.19;78.88;100825.16;5040660;28;45911;-74
2022/01/10 00:43:45;;;;;;;;;55.75;43.00;;;;;8.22;78.64;100825.22;5056322;28;45752;-74
2022/01/10 00:46:11;;;;;;;;;53.25;42.00;;;;;8.23;78.36;100833.13;5077356;28;45438;-73
2022/01/10 00:48:36;;;;;;;;;52.00;41.25;;;;;8.24;78.75;100832.28;5076933;28;45897;-74
2022/01/10 00:51:02;;;;;;;;;49.50;41.25;;;;;8.24;78.89;100842.78;5076026;28;58666;-74
2022/01/10 00:53:27;;;;;;;;;54.00;41.75;;;;;8.26;78.62;100845.47;5077820;28;45470;-74
2022/01/10 00:55:53;;;;;;;;;56.75;43.00;;;;;8.27;78.78;100840.25;5078058;28;56322;-73
2022/01/10 00:58:18;;;;;;;;;57.25;42.25;;;;;8.29;78.66;100832.38;5076793;28;59009;-74
2022/01/10 01:00:43;;;;;;;;;52.00;40.25;;;;;8.31;78.54;100843.78;5058889;28;58134;-74
2022/01/10 01:03:09;;;;;;;;;49.75;40.50;;;;;8.31;78.62;100844.72;5076112;28;45212;-74
2022/01/10 01:05:39;;;;;;;;;49.25;41.00;;;;;8.31;78.71;100849.97;5077134;28;45564;-74
2022/01/10 01:08:08;;;;;;;;;52.25;43.50;;;;;8.30;78.59;100849.91;5076350;28;47210;-74
2022/01/10 01:11:03;;;;;;;;;51.00;41.25;;;;;8.27;78.83;100853.38;5077021;28;45278;-74
2022/01/10 01:24:04;;;;;;;;;57.00;42.75;;;;;8.28;78.27;100889.34;5076965;28;45357;-73
2022/01/10 01:26:32;;;;;;;;;54.00;41.75;;;;;8.28;78.24;100896.38;5077027;28;45406;-74
2022/01/10 01:29:00;;;;;;;;;52.50;41.00;;;;;8.28;78.17;100893.72;5067566;28;47333;-73
2022/01/10 01:31:28;;;;;;;;;59.50;41.00;;;;;8.28;78.25;100897.25;5076846;28;45294;-74
2022/01/10 01:33:54;;;;;;;;;54.75;42.00;;;;;8.28;78.23;100904.25;5059547;28;45495;-74
2022/01/10 01:36:23;;;;;;;;;52.00;40.00;;;;;8.27;78.31;100905.13;5080355;28;45830;-73
2022/01/10 01:38:48;;;;;;;;;54.50;44.50;;;;;8.26;78.24;100911.25;5046276;28;46578;-73
2022/01/10 01:43:49;;;;;;;;;52.50;41.50;;;;;8.20;78.23;100929.50;5080473;28;45521;-75
2022/01/10 01:46:15;;;;;;;;;52.75;42.25;;;;;8.20;78.05;100927.75;5080347;28;45143;-74
2022/01/10 01:48:40;;;;;;;;;55.25;43.50;;;;;8.19;78.35;100936.50;5062025;28;46307;-74
2022/01/10 01:51:06;;;;;;;;;52.00;42.00;;;;;8.13;78.14;100928.47;5079592;28;61601;-74
2022/01/10 01:53:36;;;;;;;;;49.00;41.75;;;;;8.14;77.85;100948.66;5080320;28;45387;-75
2022/01/10 01:56:05;;;;;;;;;54.50;41.75;;;;;8.12;78.00;100947.75;5080157;28;45215;-74
2022/01/10 01:58:30;;;;;;;;;47.75;42.00;;;;;8.08;78.13;100944.13;5079329;28;46435;-74
2022/01/10 02:00:56;;;;;;;;;53.50;46.50;;;;;8.07;78.25;100950.25;5079326;28;45482;-74
2022/01/10 02:03:21;;;;;;;;;59.50;43.25;;;;;8.05;78.13;100946.72;5079245;28;60870;-74
2022/01/10 02:05:46;;;;;;;;;45.75;42.00;;;;;8.03;78.44;100947.53;5079595;28;53000;-74
2022/01/10 02:08:15;;;;;;;;;47.75;42.00;;;;;8.01;77.97;100954.50;5078915;28;65120;-74
2022/01/10 02:10:41;;;;;;;;;58.00;45.25;;;;;7.97;78.20;100960.53;5079920;28;45382;-75
2022/01/10 02:13:06;;;;;;;;;60.50;44.25;;;;;7.96;78.24;100969.28;5061757;28;45277;-74
2022/01/10 02:18:19;;;;;;;;;55.75;44.50;;;;;7.87;78.02;100968.19;5064494;28;45781;-74
2022/01/10 02:20:47;;;;;;;;;60.75;45.75;;;;;7.85;78.22;100974.28;5060715;28;55955;-74
2022/01/10 02:23:16;;;;;;;;;55.25;45.00;;;;;7.82;78.04;100966.31;5079548;28;45469;-74
2022/01/10 02:25:44;;;;;;;;;56.75;46.00;;;;;7.77;78.13;100960.03;5066247;28;45381;-74
2022/01/10 02:28:09;;;;;;;;;63.75;45.25;;;;;7.80;78.05;100971.53;5071565;28;45520;-74
2022/01/10 02:30:35;;;;;;;;;51.75;42.50;;;;;7.78;78.03;100965.38;5079020;28;61930;-74
2022/01/10 02:33:01;;;;;;;;;60.00;46.00;;;;;7.73;78.36;100959.09;5078815;28;45315;-73
2022/01/10 02:35:27;;;;;;;;;59.25;49.00;;;;;7.77;78.30;100962.69;5043672;28;45547;-73
2022/01/10 02:37:54;;;;;;;;;63.25;45.00;;;;;7.76;78.25;100967.03;5079356;28;45454;-74
2022/01/10 02:40:22;;;;;;;;;64.50;49.25;;;;;7.74;78.10;100974.00;5079289;28;45371;-74
2022/01/10 02:42:47;;;;;;;;;59.25;46.25;;;;;7.67;77.95;100968.56;5061812;28;45188;-73
2022/01/10 02:45:13;;;;;;;;;61.00;46.75;;;;;7.66;77.93;100974.66;5078963;28;51541;-74
2022/01/10 02:47:38;;;;;;;;;43.50;37.50;;;;;7.67;77.90;100987.88;5078898;28;45644;-73
2022/01/10 02:50:04;;;;;;;;;59.25;44.50;;;;;7.66;78.11;100993.06;5079108;28;45229;-74
2022/01/10 02:52:30;;;;;;;;;63.25;48.00;;;;;7.61;78.05;100998.19;5060612;28;45394;-74
2022/01/10 02:54:57;;;;;;;;;65.50;50.00;;;;;7.58;78.08;101006.00;5079366;28;45528;-73
2022/01/10 02:57:22;;;;;;;;;61.75;49.25;;;;;7.50;77.84;100997.03;5078422;28;46606;-75
2022/01/10 02:59:48;;;;;;;;;62.75;49.75;;;;;7.56;77.97;101005.06;5079337;28;45431;-73
2022/01/10 03:02:19;;;;;;;;;65.25;51.25;;;;;7.48;78.06;100990.88;5078231;28;53324;-74
2022/01/10 03:04:44;;;;;;;;;64.50;48.75;;;;;7.52;78.12;101011.13;5077987;28;47228;-73
2022/01/10 03:07:10;;;;;;;;;66.25;50.50;;;;;7.50;77.85;101016.31;5078009;28;62010;-74
2022/01/10 03:09:36;;;;;;;;;64.75;47.50;;;;;7.48;77.81;101011.88;5078872;28;45446;-73
2022/01/10 03:12:02;;;;;;;;;73.00;50.75;;;;;7.44;78.03;101010.00;5079239;28;45470;-74
2022/01/10 03:14:27;;;;;;;;;64.75;48.00;;;;;7.41;78.11;101018.72;5079251;28;45494;-74
2022/01/10 03:16:53;;;;;;;;;68.50;50.75;;;;;7.39;77.92;101020.41;5078000;28;61469;-74
2022/01/10 03:19:18;;;;;;;;;63.50;49.00;;;;;7.38;77.99;101025.63;5077889;28;60199;-74
2022/01/10 03:21:43;;;;;;;;;68.50;50.50;;;;;7.38;77.88;101026.50;5078463;28;45268;-73
2022/01/10 03:24:09;;;;;;;;;71.75;50.25;;;;;7.38;77.85;101033.50;5078619;28;49207;-74
2022/01/10 03:26:34;;;;;;;;;63.75;51.00;;;;;7.39;78.04;101036.16;5078231;28;60311;-73
2022/01/10 03:28:59;;;;;;;;;68.50;52.00;;;;;7.39;77.82;101035.28;5073651;28;45459;-74
2022/01/10 03:31:25;;;;;;;;;62.00;50.00;;;;;7.40;77.85;101042.28;5077338;28;48948;-74
2022/01/10 03:33:50;;;;;;;;;60.50;48.50;;;;;7.41;77.84;101049.34;5078095;28;45623;-73
2022/01/10 03:36:16;;;;;;;;;69.50;48.25;;;;;7.40;77.75;101052.81;5077959;28;64582;-74
2022/01/10 03:38:41;;;;;;;;;67.25;51.25;;;;;7.39;77.96;101051.91;5077635;28;65156;-74
2022/01/10 03:41:06;;;;;;;;;63.00;50.25;;;;;7.38;78.05;101059.75;5078173;28;45388;-74
2022/01/10 03:43:32;;;;;;;;;67.50;50.75;;;;;7.37;77.83;101061.50;5078452;28;45435;-73
2022/01/10 03:45:58;;;;;;;;;60.00;49.25;;;;;7.36;77.91;101062.34;5078457;28;45464;-73
2022/01/10 03:48:24;;;;;;;;;67.75;51.25;;;;;7.33;77.66;101059.63;5077823;28;45226;-75
2022/01/10 03:50:50;;;;;;;;;59.25;46.25;;;;;7.28;77.95;101062.13;5078384;28;45286;-74
2022/01/10 03:53:15;;;;;;;;;62.00;48.75;;;;;7.32;78.05;101063.13;5078068;28;45437;-74
2022/01/10 03:55:41;;;;;;;;;58.50;47.25;;;;;7.31;78.51;101059.59;5059626;28;57421;-73
2022/01/10 03:58:06;;;;;;;;;67.00;49.00;;;;;7.33;78.24;101071.03;5077735;28;45284;-73
2022/01/10 04:00:32;;;;;;;;;63.75;52.50;;;;;7.32;78.20;101082.38;5076919;28;45558;-74
2022/01/10 04:03:03;;;;;;;;;65.00;51.25;;;;;7.32;78.32;101069.25;5046239;28;55352;-74
2022/01/10 04:05:28;;;;;;;;;61.00;47.50;;;;;7.30;78.00;101077.94;5078037;28;45735;-73
2022/01/10 04:07:53;;;;;;;;;59.50;46.25;;;;;7.30;78.06;101081.47;5078101;28;45442;-74
2022/01/10 04:10:19;;;;;;;;;69.75;51.00;;;;;7.29;77.59;101100.66;5078103;28;45324;-73
2022/01/10 04:12:44;;;;;;;;;65.00;51.25;;;;;7.26;77.77;101105.84;5059512;28;45235;-75
2022/01/10 04:15:10;;;;;;;;;60.00;48.50;;;;;7.24;77.79;101110.16;5077177;28;52114;-73
2022/01/10 04:17:36;;;;;;;;;63.00;44.50;;;;;7.25;77.85;101106.72;5077650;28;45376;-73
2022/01/10 04:20:02;;;;;;;;;63.75;48.00;;;;;7.19;77.88;101092.47;5060125;28;45591;-74
2022/01/10 04:22:27;;;;;;;;;65.75;50.50;;;;;7.22;77.82;101110.97;5077940;28;45541;-74
2022/01/10 04:24:53;;;;;;;;;70.25;49.25;;;;;7.21;77.80;101115.34;5076709;28;55451;-74
2022/01/10 04:27:18;;;;;;;;;64.25;47.25;;;;;7.17;77.62;101113.47;5075501;28;56402;-73
2022/01/10 04:29:43;;;;;;;;;65.00;49.25;;;;;7.15;77.62;101116.91;5069929;28;50567;-74
2022/01/10 04:32:11;;;;;;;;;60.25;46.00;;;;;7.11;77.38;101122.91;5077185;28;50809;-74
2022/01/10 04:34:37;;;;;;;;;66.75;51.25;;;;;7.05;77.53;101126.22;5077360;28;47929;-74
2022/01/10 04:37:02;;;;;;;;;60.75;49.00;;;;;7.02;77.54;101126.13;5077511;28;45403;-74
2022/01/10 04:39:28;;;;;;;;;59.75;49.25;;;;;6.99;77.56;101126.06;5077744;28;45498;-74
2022/01/10 04:41:53;;;;;;;;;61.00;49.50;;;;;6.95;77.35;101121.53;5076650;28;55207;-74
2022/01/10 04:44:19;;;;;;;;;65.25;50.00;;;;;6.93;77.76;101128.50;5077596;28;46409;-73
2022/01/10 04:46:44;;;;;;;;;63.25;49.25;;;;;6.91;77.38;101143.28;5077114;28;45293;-74
2022/01/10 04:49:17;;;;;;;;;63.50;49.00;;;;;6.87;77.69;101150.19;5077096;28;45942;-74
2022/01/10 04:51:43;;;;;;;;;68.00;52.00;;;;;6.86;77.59;101160.63;5077412;28;45281;-74
2022/01/10 04:54:09;;;;;;;;;60.75;49.00;;;;;6.83;77.59;101164.94;5076519;28;46568;-73
2022/01/10 04:56:35;;;;;;;;;59.75;47.50;;;;;6.82;77.80;101157.03;5077308;28;45303;-73
2022/01/10 04:59:01;;;;;;;;;63.50;49.25;;;;;6.79;77.74;101170.06;5076687;28;57280;-74
2022/01/10 05:01:26;;;;;;;;;62.50;47.50;;;;;6.73;77.41;101168.13;5076974;28;45437;-74
2022/01/10 05:03:51;;;;;;;;;66.25;50.50;;;;;6.74;77.81;101180.41;5076739;28;46266;-74
2022/01/10 05:06:17;;;;;;;;;63.50;49.00;;;;;6.71;77.61;101175.06;5076882;28;45419;-73
2022/01/10 05:08:42;;;;;;;;;60.75;50.75;;;;;6.70;77.93;101182.88;5075621;28;49020;-72
2022/01/10 05:11:07;;;;;;;;;61.50;50.25;;;;;6.67;77.76;101174.91;5077029;28;49610;-73
2022/01/10 05:13:34;;;;;;;;;67.25;50.00;;;;;6.66;77.74;101178.34;5058575;28;48591;-74
2022/01/10 05:15:59;;;;;;;;;65.50;51.50;;;;;6.66;77.61;101191.47;5076607;28;45374;-74
2022/01/10 05:18:24;;;;;;;;;67.50;51.00;;;;;6.64;77.93;101191.44;5075471;28;45313;-74
2022/01/10 05:20:50;;;;;;;;;67.75;54.25;;;;;6.61;77.72;101186.09;5075219;28;45324;-74
2022/01/10 05:23:16;;;;;;;;;67.75;52.50;;;;;6.61;77.99;101190.47;5076021;28;46314;-73
2022/01/10 05:25:41;;;;;;;;;67.50;50.50;;;;;6.63;77.98;101197.53;5077160;28;45368;-74
2022/01/10 05:28:07;;;;;;;;;65.25;51.75;;;;;6.63;77.93;101200.16;5073790;28;45944;-74
2022/01/10 05:30:33;;;;;;;;;71.00;50.25;;;;;6.63;77.74;101215.91;5077354;28;45572;-74
2022/01/10 05:32:58;;;;;;;;;69.75;52.75;;;;;6.57;78.01;101206.09;5075446;28;58879;-74
2022/01/10 05:35:24;;;;;;;;;64.25;50.50;;;;;6.61;77.93;101220.22;5076244;28;58968;-74
2022/01/10 05:37:49;;;;;;;;;70.50;53.00;;;;;6.59;77.73;101218.38;5058789;28;45335;-73
2022/01/10 05:40:15;;;;;;;;;65.50;48.75;;;;;6.55;77.88;101226.16;5076524;28;51494;-74
2022/01/10 05:42:41;;;;;;;;;69.00;51.75;;;;;6.55;78.04;101230.47;5057539;28;46730;-74
2022/01/10 05:45:07;;;;;;;;;58.50;47.00;;;;;6.54;78.22;101223.44;5058070;28;45513;-73
2022/01/10 05:47:39;;;;;;;;;65.75;51.75;;;;;6.50;77.80;101224.22;5075943;28;45478;-73
2022/01/10 05:50:05;;;;;;;;;69.25;53.75;;;;;6.53;77.90;101240.03;5059615;28;46821;-73
2022/01/10 05:52:30;;;;;;;;;73.00;52.25;;;;;6.51;77.95;101245.25;5058420;28;45898;-74
2022/01/10 05:54:56;;;;;;;;;63.25;51.25;;;;;6.50;77.64;101243.47;5076331;28;45298;-74
2022/01/10 05:57:21;;;;;;;;;74.25;53.50;;;;;6.49;77.76;101253.88;5076298;28;56543;-74
2022/01/10 05:59:46;;;;;;;;;70.25;52.25;;;;;6.48;77.86;101247.75;5071520;28;54476;-73
2022/01/10 06:02:12;;;;;;;;;66.00;51.25;;;;;6.43;78.06;101253.69;5069139;28;61475;-73
2022/01/10 06:04:37;;;;;;;;;65.50;52.75;;;;;6.45;78.06;101270.38;5057660;28;60798;-74
2022/01/10 06:07:03;;;;;;;;;69.25;52.00;;;;;6.44;77.85;101271.19;5076296;28;46658;-74
2022/01/10 06:09:28;;;;;;;;;65.75;53.75;;;;;6.43;77.65;101279.91;5075922;28;45451;-73
2022/01/10 06:11:54;;;;;;;;;70.25;55.25;;;;;6.42;77.80;101283.38;5075807;28;59139;-75
2022/01/10 06:14:19;;;;;;;;;64.00;48.75;;;;;6.41;77.96;101292.09;5074015;28;59235;-74
2022/01/10 06:16:44;;;;;;;;;67.50;54.00;;;;;6.40;77.96;101312.19;5072475;28;54923;-74
2022/01/10 06:19:10;;;;;;;;;74.75;54.75;;;;;6.40;77.89;101309.56;5076534;28;45484;-75
2022/01/10 06:21:35;;;;;;;;;68.75;53.25;;;;;6.40;78.13;101311.28;5078669;28;62836;-73
2022/01/10 06:24:01;;;;;;;;;67.00;52.75;;;;;6.41;77.94;101319.22;5077117;28;60800;-75
2022/01/10 06:26:26;;;;;;;;;64.75;52.50;;;;;6.41;78.04;101318.31;5078840;28;58223;-73
2022/01/10 06:28:51;;;;;;;;;70.50;51.00;;;;;6.41;78.15;101313.97;5063685;28;45536;-74
2022/01/10 06:31:17;;;;;;;;;72.75;52.75;;;;;6.42;78.20;101326.22;5071245;28;65541;-74
2022/01/10 06:33:42;;;;;;;;;67.25;55.00;;;;;6.41;78.27;101332.31;5076549;28;45597;-74
2022/01/10 06:36:09;;;;;;;;;69.75;54.00;;;;;6.42;78.00;101339.34;5078594;28;45368;-74
2022/01/10 06:38:35;;;;;;;;;69.25;52.00;;;;;6.43;78.02;101335.00;5078664;28;45378;-73
2022/01/10 06:41:00;;;;;;;;;63.25;52.25;;;;;6.43;78.16;101346.38;5078576;27;47743;-73
2022/01/10 06:43:26;;;;;;;;;69.25;54.75;;;;;6.44;78.14;101352.50;5078917;27;45480;-73
2022/01/10 06:45:51;;;;;;;;;70.00;53.25;;;;;6.40;77.83;101348.00;5079049;27;46202;-73
2022/01/10 06:48:17;;;;;;;;;66.75;52.50;;;;;6.44;77.73;101361.25;5077898;28;54393;-73
2022/01/10 06:50:46;;;;;;;;;69.50;56.25;;;;;6.42;77.98;101362.97;5077710;28;64335;-73
2022/01/10 06:53:15;;;;;;;;;70.75;52.25;;;;;6.47;78.03;101379.75;5075817;28;45532;-73
2022/01/10 06:55:40;;;;;;;;;72.50;53.25;;;;;6.50;78.07;101389.47;5077862;28;45493;-73
2022/01/10 06:58:06;;;;;;;;;79.25;56.25;;;;;6.51;77.49;101386.91;5079044;27;45512;-72
2022/01/10 07:00:31;;;;;;;;;67.25;52.25;;;;;6.51;77.58;101400.03;5066837;28;49685;-73
2022/01/10 07:02:57;;;;;;;;;74.50;52.75;;;;;6.53;77.76;101405.31;5072647;28;45568;-72
2022/01/10 07:05:22;;;;;;;;;70.00;55.25;;;;;6.54;77.68;101418.47;5071559;28;45978;-74
2022/01/10 07:07:47;;;;;;;;;68.50;50.25;;;;;6.49;75.07;101417.41;5073269;28;53509;-74
2022/01/10 07:10:13;;;;;;;;;71.75;50.00;;;;;6.35;75.01;101431.78;5069787;28;46686;-75
2022/01/10 07:12:38;;;;;;;;;64.75;49.00;;;;;6.23;76.46;101431.28;5069926;28;46990;-77
2022/01/10 07:15:04;;;;;;;;;66.00;49.50;;;;;6.19;76.54;101430.28;5064939;28;45790;-77
2022/01/10 07:17:30;;;;;;;;;73.75;51.25;;;;;6.30;76.63;101452.56;5055039;28;45637;-78
2022/01/10 07:19:55;;;;;;;;;71.50;52.25;;;;;6.35;76.77;101467.59;5042600;28;48506;-79
2022/01/10 07:22:20;;;;;;;;;67.25;52.75;;;;;6.40;76.48;101468.66;5074985;27;57937;-77
2022/01/10 07:24:46;;;;;;;;;70.25;50.25;;;;;6.42;76.92;101473.13;5061315;28;45574;-80
2022/01/10 07:27:11;;;;;;;;;68.75;53.50;;;;;6.46;76.92;101476.75;5058040;28;47954;-80
2022/01/10 07:29:37;;;;;;;;;67.75;50.00;;;;;6.53;77.27;101490.16;5074182;28;47396;-78
2022/01/10 07:32:02;;;;;;;;;69.75;53.25;;;;;6.57;76.90;101492.06;5056522;28;45545;-77
2022/01/10 07:34:28;;;;;;;;;71.50;55.00;;;;;6.61;76.91;101497.44;5075597;28;45500;-78
2022/01/10 07:36:53;;;;;;;;;78.25;53.50;;;;;6.59;76.72;101505.22;5056922;28;55307;-78
2022/01/10 07:39:18;;;;;;;;;67.25;50.50;;;;;6.61;76.92;101511.47;5058455;28;50884;-77
2022/01/10 07:41:44;;;;;;;;;71.25;51.25;;;;;6.64;77.20;101508.94;5075925;28;61299;-76
2022/01/10 07:44:10;;;;;;;;;75.50;55.00;;;;;6.67;77.38;101514.31;5057321;28;45510;-77
2022/01/10 07:46:35;;;;;;;;;72.25;50.50;;;;;6.72;77.54;101527.59;5075183;28;45570;-73
2022/01/10 07:49:00;;;;;;;;;68.75;51.25;;;;;6.75;77.59;101530.31;5056508;28;46222;-76
2022/01/10 07:51:26;;;;;;;;;71.00;52.00;;;;;6.83;77.72;101547.28;5058124;28;45417;-74
2022/01/10 07:53:52;;;;;;;;;73.50;50.75;;;;;6.83;77.71;101540.28;5076250;28;45438;-76
2022/01/10 07:56:17;;;;;;;;;70.25;49.75;;;;;6.90;77.39;101548.38;5076411;28;45438;-75
2022/01/10 07:58:43;;;;;;;;;65.25;45.50;;;;;6.93;77.67;101554.66;5075625;28;61156;-75
2022/01/10 08:01:08;;;;;;;;;62.25;48.50;;;;;6.95;77.53;101563.47;5058343;28;45514;-76
2022/01/10 08:03:34;;;;;;;;;65.00;48.50;;;;;6.93;77.29;101559.03;5057208;28;46206;-77
2022/01/10 08:05:59;;;;;;;;;66.75;47.00;;;;;6.99;77.56;101569.75;5076717;28;45517;-76
2022/01/10 08:08:25;;;;;;;;;68.50;49.50;;;;;7.01;77.10;101581.19;5058182;28;46026;-77
2022/01/10 08:10:50;;;;;;;;;59.50;47.75;;;;;7.02;77.13;101590.84;5076354;28;54327;-77
2022/01/10 08:13:15;;;;;;;;;59.25;45.50;;;;;7.02;77.37;101585.59;5076963;28;46065;-77
2022/01/10 08:15:41;;;;;;;;;62.75;46.50;;;;;7.06;77.24;101590.13;5076282;28;45322;-77
2022/01/10 08:18:06;;;;;;;;;68.25;50.75;;;;;7.06;77.29;101587.50;5076535;28;64552;-75
2022/01/10 08:20:32;;;;;;;;;57.75;45.00;;;;;7.13;77.26;101586.88;5075036;28;45505;-78
2022/01/10 08:22:57;;;;;;;;;57.00;45.00;;;;;7.12;77.18;101592.97;5076775;28;45668;-78
2022/01/10 08:25:23;;;;;;;;;63.50;45.25;;;;;7.19;77.22;101604.59;5076473;28;55328;-79
2022/01/10 08:27:48;;;;;;;;;63.50;46.00;;;;;7.22;77.14;101605.63;5072763;28;46364;-76
2022/01/10 08:30:13;;;;;;;;;65.00;48.75;;;;;7.25;77.07;101608.38;5055469;28;45388;-77
2022/01/10 08:32:39;;;;;;;;;56.00;44.50;;;;;7.26;76.52;101620.66;5076586;28;45770;-79
2022/01/10 08:35:05;;;;;;;;;59.50;44.50;;;;;7.29;76.80;101615.50;5075870;28;45518;-78
2022/01/10 08:37:30;;;;;;;;;55.75;39.50;;;;;7.32;77.06;101625.25;5076905;28;46251;-78
2022/01/10 08:39:56;;;;;;;;;49.00;40.25;;;;;7.35;76.56;101626.25;5077171;28;52422;-77
2022/01/10 08:42:29;;;;;;;;;49.00;38.50;;;;;7.37;76.77;101628.03;5041222;28;45569;-79
2022/01/10 08:44:54;;;;;;;;;51.50;40.50;;;;;7.40;76.71;101639.53;5039520;28;45519;-79
2022/01/10 08:47:20;;;;;;;;;49.75;40.50;;;;;7.42;76.49;101637.00;5054558;28;45663;-79
2022/01/10 08:49:48;;;;;;;;;42.75;36.75;;;;;7.41;76.61;101632.56;5075534;28;45609;-78
2022/01/10 08:52:14;;;;;;;;;54.75;41.50;;;;;7.45;75.97;101647.59;5058017;28;45467;-76
2022/01/10 08:54:40;;;;;;;;;36.25;32.00;;;;;7.46;76.41;101646.78;5058121;28;45553;-79
2022/01/10 08:57:05;;;;;;;;;45.75;40.00;;;;;7.49;76.61;101655.66;5074832;28;60448;-78
2022/01/10 08:59:31;;;;;;;;;53.75;37.75;;;;;7.52;76.74;101655.78;5074849;28;45514;-78
2022/01/10 09:01:56;;;;;;;;;54.50;39.25;;;;;7.56;76.29;101659.38;5074904;28;59149;-77
2022/01/10 09:04:22;;;;;;;;;51.00;40.75;;;;;7.55;76.20;101662.84;5058348;28;45443;-77
2022/01/10 09:06:49;;;;;;;;;45.75;40.00;;;;;7.53;76.60;101656.66;5056394;28;47102;-78
2022/01/10 09:09:18;;;;;;;;;53.00;39.00;;;;;7.65;76.72;101677.22;5073202;28;45538;-78
2022/01/10 09:11:44;;;;;;;;;39.25;30.50;;;;;7.65;76.41;101677.22;5056825;28;46994;-78
2022/01/10 09:14:09;;;;;;;;;40.50;27.00;;;;;7.70;76.72;101691.44;5076356;28;45439;-77
2022/01/10 09:16:37;;;;;;;;;22.75;18.75;;;;;7.79;76.84;101704.94;5056511;28;47823;-77
2022/01/10 09:19:03;;;;;;;;;32.00;25.75;;;;;7.80;76.35;101712.88;5057594;28;45572;-77
2022/01/10 09:21:28;;;;;;;;;25.50;21.00;;;;;7.87;76.26;101720.13;5184841;22;56553;-77
2022/01/10 09:24:29;;;;;;;;;27.25;17.50;;;;;7.88;76.18;101718.38;5069893;28;45592;-79
2022/01/10 09:26:56;;;;;;;;;25.25;23.00;;;;;7.91;76.12;101725.50;4975399;28;46849;-76
2022/01/10 09:29:22;;;;;;;;;25.50;23.00;;;;;7.93;76.05;101718.56;5042758;28;45568;-77
2022/01/10 09:31:50;;;;;;;;;27.25;24.50;;;;;7.96;76.32;101726.56;5072815;28;45267;-76
2022/01/10 09:34:19;;;;;;;;;28.75;25.25;;;;;7.96;76.00;101722.19;5073136;28;45594;-76
2022/01/10 09:36:44;;;;;;;;;31.00;23.75;;;;;8.02;76.09;101729.41;5072898;28;45627;-75
2022/01/10 09:39:13;;;;;;;;;33.00;25.75;;;;;8.05;75.90;101726.91;5051750;28;45546;-75
2022/01/10 09:41:38;;;;;;;;;33.25;26.75;;;;;8.05;75.37;101727.78;5070892;28;45546;-76
2022/01/10 09:44:04;;;;;;;;;30.25;25.75;;;;;8.07;75.68;101733.09;5069818;28;45564;-75
2022/01/10 09:46:30;;;;;;;;;24.50;23.75;;;;;8.10;75.48;101738.47;5066849;28;45509;-76
2022/01/10 09:48:57;;;;;;;;;28.75;23.75;;;;;8.11;76.12;101728.00;5038648;28;45391;-76
2022/01/10 09:51:26;;;;;;;;;34.25;27.25;;;;;8.19;75.92;101749.31;5054569;28;45569;-76
2022/01/10 09:53:52;;;;;;;;;31.00;26.00;;;;;8.23;76.21;101743.31;5049970;28;45383;-76
2022/01/10 09:56:17;;;;;;;;;40.75;31.50;;;;;8.27;75.97;101761.00;5073463;28;60380;-78
2022/01/10 09:58:42;;;;;;;;;35.50;30.50;;;;;8.30;75.80;101752.31;5043647;28;58331;-77
2022/01/10 10:01:08;;;;;;;;;49.00;34.75;;;;;8.33;75.56;101778.75;5041630;28;45440;-74
2022/01/10 10:03:33;;;;;;;;;36.25;29.25;;;;;8.33;75.47;101769.13;5074639;28;54749;-74
2022/01/10 10:05:59;;;;;;;;;47.50;32.25;;;;;8.35;75.79;101785.84;5053970;28;60827;-74
2022/01/10 10:08:25;;;;;;;;;37.25;29.50;;;;;8.36;75.82;101779.78;5068312;28;45292;-74
2022/01/10 10:10:51;;;;;;;;;43.25;29.50;;;;;8.33;75.46;101777.00;5069195;28;45498;-75
2022/01/10 10:13:16;;;;;;;;;39.00;32.50;;;;;8.38;75.08;101783.38;5055915;28;45538;-73
2022/01/10 10:15:44;;;;;;;;;47.00;35.50;;;;;8.41;76.06;101779.94;5077354;28;45922;-74
2022/01/10 10:18:13;;;;;;;;;36.25;31.50;;;;;8.43;75.84;101791.44;5061843;28;45622;-75
2022/01/10 10:20:40;;;;;;;;;44.25;31.25;;;;;8.45;75.31;101783.56;5069105;28;45358;-74
2022/01/10 10:23:05;;;;;;;;;37.50;30.25;;;;;8.43;75.21;101778.25;5074681;27;45516;-75
2022/01/10 10:25:33;;;;;;;;;34.75;31.00;;;;;8.51;75.27;101796.94;5078664;28;46377;-75
2022/01/10 10:27:58;;;;;;;;;43.75;34.25;;;;;8.51;74.79;101789.94;5078047;28;45498;-76
2022/01/10 10:30:27;;;;;;;;;48.75;36.75;;;;;8.54;75.02;101795.31;5056909;28;56795;-73
2022/01/10 10:33:08;;;;;;;;;50.50;37.25;;;;;8.56;75.25;101798.88;5075518;28;45407;-74
2022/01/10 10:35:34;;;;;;;;;54.00;37.25;;;;;8.58;74.84;101796.34;5070309;28;46443;-74
2022/01/10 10:38:01;;;;;;;;;45.00;35.00;;;;;8.61;74.98;101799.06;5074748;28;56026;-74
2022/01/10 10:40:26;;;;;;;;;43.75;33.00;;;;;8.66;74.87;101801.00;5077834;28;45352;-74
2022/01/10 10:42:52;;;;;;;;;47.00;36.25;;;;;8.71;74.92;101806.44;5041453;28;48552;-74
2022/01/10 10:45:17;;;;;;;;;48.50;37.25;;;;;8.73;74.62;101810.00;5039044;28;62544;-75
2022/01/10 10:47:45;;;;;;;;;43.00;32.50;;;;;8.74;74.99;101803.03;5072664;28;45415;-76
2022/01/10 10:50:11;;;;;;;;;47.00;36.25;;;;;8.76;74.55;101815.38;5049931;28;45504;-74
2022/01/10 10:52:37;;;;;;;;;50.50;39.25;;;;;8.76;74.29;101819.75;5074945;28;45475;-75
2022/01/10 10:55:07;;;;;;;;;43.75;35.75;;;;;8.74;74.46;101824.97;5060565;28;46669;-75
2022/01/10 10:57:33;;;;;;;;;47.00;37.25;;;;;8.74;74.69;101824.97;5059328;28;45521;-76
2022/01/10 10:59:59;;;;;;;;;50.25;39.50;;;;;8.74;74.64;101824.97;5059705;28;45423;-76
2022/01/10 11:02:25;;;;;;;;;50.25;39.00;;;;;8.75;74.64;101816.22;5067119;28;45487;-75
2022/01/10 11:04:50;;;;;;;;;51.25;41.25;;;;;8.80;74.72;101824.28;5074962;28;47018;-76
2022/01/10 11:07:16;;;;;;;;;38.75;33.75;;;;;8.85;74.70;101828.88;5070602;28;45431;-75
2022/01/10 11:09:42;;;;;;;;;45.50;37.75;;;;;8.78;74.24;101818.06;5059547;28;45595;-77
2022/01/10 11:12:07;;;;;;;;;50.25;37.00;;;;;8.74;74.34;101813.56;5050514;28;55307;-76
2022/01/10 11:14:33;;;;;;;;;48.00;40.50;;;;;8.80;74.34;101827.81;5077280;28;46771;-76
2022/01/10 11:16:58;;;;;;;;;47.50;39.00;;;;;8.85;74.27;101826.22;5057866;28;56833;-76
2022/01/10 11:19:26;;;;;;;;;44.75;34.50;;;;;8.84;74.03;101818.25;5074858;27;47371;-74
2022/01/10 11:22:11;;;;;;;;;47.25;37.25;;;;;8.88;74.60;101817.53;5061119;27;45556;-74
2022/01/10 11:24:48;;;;;;;;;46.50;36.75;;;;;8.86;74.32;101822.75;5074664;27;46596;-74
2022/01/10 11:27:33;;;;;;;;;46.75;37.75;;;;;8.84;74.56;101832.34;5066962;28;45731;-75
2022/01/10 11:30:00;;;;;;;;;46.50;35.25;;;;;8.86;74.40;101840.28;5082302;27;45510;-74